Ipava, Illinois
Current Conditions -  °F | °C
As of 7:35 AM on Tuesday 21 Oct 2014 (Local Time) from KMQB Reporting Station
Clear Clear  
Wind Chill: 38°   Ceiling: Unl
Heat Index: 38°   Visibility: 7mi
Dew Point: 38°   Wind: 3mph
Humidity: 97%   Direction: 360°N
Pressure: 30.16"   Gusts: NA
Location:  40.35°N, 90.32°W
Report Text: KMQB 211235Z AUTO 36003KT 7SM CLR 04/03 A3016 RMK AO2 T00350031
Loading
Personal Weather Stations






























Interactive Weather Map
Tropical Storm Tracking
New forecast layout! Learn more

10-Day Weather Forecast

Advertisements
Track Severe Weather on mobile